sensor_id;sensor_type;location;lat;lon;timestamp;temperature;humidity
4840;DHT22;2434;48.486;7.964;2024-01-15T00:01:03;-1.30;64.20
4840;DHT22;2434;48.486;7.964;2024-01-15T00:03:32;-1.30;64.30
4840;DHT22;2434;48.486;7.964;2024-01-15T00:06:00;-1.30;64.40
4840;DHT22;2434;48.486;7.964;2024-01-15T00:08:30;-1.30;64.40
4840;DHT22;2434;48.486;7.964;2024-01-15T00:10:58;-1.30;64.30
4840;DHT22;2434;48.486;7.964;2024-01-15T00:13:26;-1.30;64.60
4840;DHT22;2434;48.486;7.964;2024-01-15T00:15:54;-1.20;64.40
4840;DHT22;2434;48.486;7.964;2024-01-15T00:18:23;-1.20;64.30
4840;DHT22;2434;48.486;7.964;2024-01-15T00:20:51;-1.20;64.20
4840;DHT22;2434;48.486;7.964;2024-01-15T00:23:19;-1.20;64.30
4840;DHT22;2434;48.486;7.964;2024-01-15T00:25:50;-1.10;64.30
4840;DHT22;2434;48.486;7.964;2024-01-15T00:28:18;-1.10;64.20
4840;DHT22;2434;48.486;7.964;2024-01-15T00:30:46;-1.10;64.10
4840;DHT22;2434;48.486;7.964;2024-01-15T00:33:14;-1.10;64.20
4840;DHT22;2434;48.486;7.964;2024-01-15T00:35:43;-1.10;64.20
4840;DHT22;2434;48.486;7.964;2024-01-15T00:38:11;-1.10;64.40
4840;DHT22;2434;48.486;7.964;2024-01-15T00:40:39;-1.10;64.30
4840;DHT22;2434;48.486;7.964;2024-01-15T00:43:10;-1.10;64.30
4840;DHT22;2434;48.486;7.964;2024-01-15T00:45:38;-1.00;64.10
4840;DHT22;2434;48.486;7.964;2024-01-15T00:48:06;-1.00;64.10
4840;DHT22;2434;48.486;7.964;2024-01-15T00:50:35;-1.00;64.20
4840;DHT22;2434;48.486;7.964;2024-01-15T00:53:03;-1.00;64.20
4840;DHT22;2434;48.486;7.964;2024-01-15T00:55:31;-1.00;64.20
4840;DHT22;2434;48.486;7.964;2024-01-15T00:57:59;-0.90;64.20
4840;DHT22;2434;48.486;7.964;2024-01-15T01:00:29;-0.90;64.30
4840;DHT22;2434;48.486;7.964;2024-01-15T01:02:57;-0.90;64.10
4840;DHT22;2434;48.486;7.964;2024-01-15T01:05:25;-0.90;64.10
4840;DHT22;2434;48.486;7.964;2024-01-15T01:07:54;-0.90;64.10
4840;DHT22;2434;48.486;7.964;2024-01-15T01:10:22;-0.90;64.20
4840;DHT22;2434;48.486;7.964;2024-01-15T01:12:50;-0.90;64.10
4840;DHT22;2434;48.486;7.964;2024-01-15T01:15:18;-0.90;64.10
4840;DHT22;2434;48.486;7.964;2024-01-15T01:17:48;-0.90;64.10
4840;DHT22;2434;48.486;7.964;2024-01-15T01:20:16;-0.90;64.20
4840;DHT22;2434;48.486;7.964;2024-01-15T01:22:45;-0.90;64.20
4840;DHT22;2434;48.486;7.964;2024-01-15T01:25:13;-0.80;64.20
4840;DHT22;2434;48.486;7.964;2024-01-15T01:27:42;-0.80;64.10
4840;DHT22;2434;48.486;7.964;2024-01-15T01:30:10;-0.80;64.10
4840;DHT22;2434;48.486;7.964;2024-01-15T01:32:39;-0.80;64.10
4840;DHT22;2434;48.486;7.964;2024-01-15T01:35:09;-0.80;64.00
4840;DHT22;2434;48.486;7.964;2024-01-15T01:37:37;-0.80;63.90
4840;DHT22;2434;48.486;7.964;2024-01-15T01:40:06;-0.80;64.00
4840;DHT22;2434;48.486;7.964;2024-01-15T01:42:34;-0.80;64.10
4840;DHT22;2434;48.486;7.964;2024-01-15T01:45:03;-0.80;63.90
4840;DHT22;2434;48.486;7.964;2024-01-15T01:47:32;-0.80;63.90
4840;DHT22;2434;48.486;7.964;2024-01-15T01:50:01;-0.80;63.90
4840;DHT22;2434;48.486;7.964;2024-01-15T01:52:32;-0.70;63.90
4840;DHT22;2434;48.486;7.964;2024-01-15T01:55:02;-0.70;63.90
4840;DHT22;2434;48.486;7.964;2024-01-15T01:57:31;-0.70;63.90
4840;DHT22;2434;48.486;7.964;2024-01-15T02:00:02;-0.70;64.00
4840;DHT22;2434;48.486;7.964;2024-01-15T02:02:37;-0.70;64.00
4840;DHT22;2434;48.486;7.964;2024-01-15T02:05:06;-0.70;64.00
4840;DHT22;2434;48.486;7.964;2024-01-15T02:07:36;-0.70;64.00
4840;DHT22;2434;48.486;7.964;2024-01-15T02:10:05;-0.70;63.90
4840;DHT22;2434;48.486;7.964;2024-01-15T02:12:34;-0.70;63.90
4840;DHT22;2434;48.486;7.964;2024-01-15T02:15:02;-0.70;63.90
4840;DHT22;2434;48.486;7.964;2024-01-15T02:17:30;-0.70;63.90
4840;DHT22;2434;48.486;7.964;2024-01-15T02:19:58;-0.70;63.90
4840;DHT22;2434;48.486;7.964;2024-01-15T02:22:27;-0.80;63.70
4840;DHT22;2434;48.486;7.964;2024-01-15T02:24:56;-0.80;63.80
4840;DHT22;2434;48.486;7.964;2024-01-15T02:27:25;-0.80;64.00
4840;DHT22;2434;48.486;7.964;2024-01-15T02:29:53;-0.80;64.10
4840;DHT22;2434;48.486;7.964;2024-01-15T02:32:22;-0.80;64.20
4840;DHT22;2434;48.486;7.964;2024-01-15T02:34:50;-0.90;64.10
4840;DHT22;2434;48.486;7.964;2024-01-15T02:37:18;-0.80;64.30
4840;DHT22;2434;48.486;7.964;2024-01-15T02:39:47;-0.80;64.40
4840;DHT22;2434;48.486;7.964;2024-01-15T02:42:17;-0.80;64.40
4840;DHT22;2434;48.486;7.964;2024-01-15T02:44:45;-0.80;64.40
4840;DHT22;2434;48.486;7.964;2024-01-15T02:47:15;-0.80;64.40
4840;DHT22;2434;48.486;7.964;2024-01-15T02:49:43;-0.90;64.40
4840;DHT22;2434;48.486;7.964;2024-01-15T02:52:12;-0.90;64.70
4840;DHT22;2434;48.486;7.964;2024-01-15T02:54:40;-0.80;64.80
4840;DHT22;2434;48.486;7.964;2024-01-15T02:57:08;-0.90;65.00
4840;DHT22;2434;48.486;7.964;2024-01-15T02:59:37;-0.90;64.90
4840;DHT22;2434;48.486;7.964;2024-01-15T03:02:06;-0.80;65.20
4840;DHT22;2434;48.486;7.964;2024-01-15T03:04:34;-0.90;65.00
4840;DHT22;2434;48.486;7.964;2024-01-15T03:07:02;-0.90;65.20
4840;DHT22;2434;48.486;7.964;2024-01-15T03:09:30;-0.90;65.40
4840;DHT22;2434;48.486;7.964;2024-01-15T03:11:58;-0.90;65.40
4840;DHT22;2434;48.486;7.964;2024-01-15T03:14:27;-0.90;65.50
4840;DHT22;2434;48.486;7.964;2024-01-15T03:16:56;-0.90;65.60
4840;DHT22;2434;48.486;7.964;2024-01-15T03:19:24;-1.00;65.80
4840;DHT22;2434;48.486;7.964;2024-01-15T03:21:53;-1.00;66.10
4840;DHT22;2434;48.486;7.964;2024-01-15T03:24:22;-0.90;66.30
4840;DHT22;2434;48.486;7.964;2024-01-15T03:26:50;-1.00;66.40
4840;DHT22;2434;48.486;7.964;2024-01-15T03:29:18;-1.00;66.60
4840;DHT22;2434;48.486;7.964;2024-01-15T03:31:46;-1.00;66.60
4840;DHT22;2434;48.486;7.964;2024-01-15T03:34:16;-1.00;66.60
4840;DHT22;2434;48.486;7.964;2024-01-15T03:36:44;-1.00;66.60
4840;DHT22;2434;48.486;7.964;2024-01-15T03:39:13;-1.00;66.90
4840;DHT22;2434;48.486;7.964;2024-01-15T03:41:41;-1.00;66.80
4840;DHT22;2434;48.486;7.964;2024-01-15T03:44:09;-1.10;67.10
4840;DHT22;2434;48.486;7.964;2024-01-15T03:46:37;-1.10;67.40
4840;DHT22;2434;48.486;7.964;2024-01-15T03:49:05;-1.10;68.20
4840;DHT22;2434;48.486;7.964;2024-01-15T03:51:35;-1.10;67.60
4840;DHT22;2434;48.486;7.964;2024-01-15T03:54:03;-1.10;67.90
4840;DHT22;2434;48.486;7.964;2024-01-15T03:56:31;-1.10;68.10
4840;DHT22;2434;48.486;7.964;2024-01-15T03:59:00;-1.10;69.10
4840;DHT22;2434;48.486;7.964;2024-01-15T04:01:28;-1.00;68.40
4840;DHT22;2434;48.486;7.964;2024-01-15T04:03:56;-1.00;68.40
4840;DHT22;2434;48.486;7.964;2024-01-15T04:06:24;-1.10;68.40
4840;DHT22;2434;48.486;7.964;2024-01-15T04:08:54;-1.00;68.60
4840;DHT22;2434;48.486;7.964;2024-01-15T04:11:22;-1.00;68.70
4840;DHT22;2434;48.486;7.964;2024-01-15T04:13:50;-1.00;68.80
4840;DHT22;2434;48.486;7.964;2024-01-15T04:16:19;-1.00;68.80
4840;DHT22;2434;48.486;7.964;2024-01-15T04:18:47;-0.90;68.90
4840;DHT22;2434;48.486;7.964;2024-01-15T04:21:17;-0.90;68.80
4840;DHT22;2434;48.486;7.964;2024-01-15T04:23:45;-0.90;68.70
4840;DHT22;2434;48.486;7.964;2024-01-15T04:26:15;-0.90;68.50
4840;DHT22;2434;48.486;7.964;2024-01-15T04:28:43;-0.90;68.40
4840;DHT22;2434;48.486;7.964;2024-01-15T04:31:21;-0.90;68.40
4840;DHT22;2434;48.486;7.964;2024-01-15T04:33:49;-0.90;68.30
4840;DHT22;2434;48.486;7.964;2024-01-15T04:36:18;-0.90;68.20
4840;DHT22;2434;48.486;7.964;2024-01-15T04:38:46;-0.80;68.10
4840;DHT22;2434;48.486;7.964;2024-01-15T04:41:16;-0.80;68.10
4840;DHT22;2434;48.486;7.964;2024-01-15T04:43:44;-0.80;68.10
4840;DHT22;2434;48.486;7.964;2024-01-15T04:46:12;-0.80;68.00
4840;DHT22;2434;48.486;7.964;2024-01-15T04:48:41;-0.80;67.90
4840;DHT22;2434;48.486;7.964;2024-01-15T04:51:09;-0.80;67.90
4840;DHT22;2434;48.486;7.964;2024-01-15T04:53:37;-0.70;68.00
4840;DHT22;2434;48.486;7.964;2024-01-15T04:56:06;-0.70;67.90
4840;DHT22;2434;48.486;7.964;2024-01-15T04:58:35;-0.70;67.90
4840;DHT22;2434;48.486;7.964;2024-01-15T05:01:03;-0.70;67.90
4840;DHT22;2434;48.486;7.964;2024-01-15T05:03:32;-0.70;67.80
4840;DHT22;2434;48.486;7.964;2024-01-15T05:06:00;-0.70;67.80
4840;DHT22;2434;48.486;7.964;2024-01-15T05:08:29;-0.70;67.70
4840;DHT22;2434;48.486;7.964;2024-01-15T05:10:57;-0.70;67.80
4840;DHT22;2434;48.486;7.964;2024-01-15T05:13:25;-0.70;67.80
4840;DHT22;2434;48.486;7.964;2024-01-15T05:15:55;-0.60;67.90
4840;DHT22;2434;48.486;7.964;2024-01-15T05:18:23;-0.60;67.90
4840;DHT22;2434;48.486;7.964;2024-01-15T05:20:52;-0.60;68.00
4840;DHT22;2434;48.486;7.964;2024-01-15T05:23:20;-0.60;68.10
4840;DHT22;2434;48.486;7.964;2024-01-15T05:25:48;-0.60;68.20
4840;DHT22;2434;48.486;7.964;2024-01-15T05:28:16;-0.60;68.10
4840;DHT22;2434;48.486;7.964;2024-01-15T05:30:45;-0.50;68.00
4840;DHT22;2434;48.486;7.964;2024-01-15T05:33:15;-0.50;67.70
4840;DHT22;2434;48.486;7.964;2024-01-15T05:35:43;-0.40;67.50
4840;DHT22;2434;48.486;7.964;2024-01-15T05:38:11;-0.40;67.30
4840;DHT22;2434;48.486;7.964;2024-01-15T05:40:40;-0.30;67.20
4840;DHT22;2434;48.486;7.964;2024-01-15T05:43:08;-0.30;66.90
4840;DHT22;2434;48.486;7.964;2024-01-15T05:45:38;-0.30;66.60
4840;DHT22;2434;48.486;7.964;2024-01-15T05:48:06;-0.30;66.20
4840;DHT22;2434;48.486;7.964;2024-01-15T05:50:36;-0.20;66.10
4840;DHT22;2434;48.486;7.964;2024-01-15T05:53:04;-0.20;66.10
4840;DHT22;2434;48.486;7.964;2024-01-15T05:55:32;-0.20;65.90
4840;DHT22;2434;48.486;7.964;2024-01-15T05:58:00;-0.20;65.70
4840;DHT22;2434;48.486;7.964;2024-01-15T06:00:29;-0.20;65.50
4840;DHT22;2434;48.486;7.964;2024-01-15T06:02:57;-0.10;65.20
4840;DHT22;2434;48.486;7.964;2024-01-15T06:05:25;-0.10;64.80
4840;DHT22;2434;48.486;7.964;2024-01-15T06:07:54;-0.10;64.40
4840;DHT22;2434;48.486;7.964;2024-01-15T06:10:22;-0.10;64.00
4840;DHT22;2434;48.486;7.964;2024-01-15T06:12:50;0.00;63.50
4840;DHT22;2434;48.486;7.964;2024-01-15T06:15:19;-0.10;63.20
4840;DHT22;2434;48.486;7.964;2024-01-15T06:17:47;0.00;63.10
4840;DHT22;2434;48.486;7.964;2024-01-15T06:20:15;0.00;62.80
4840;DHT22;2434;48.486;7.964;2024-01-15T06:22:43;0.10;62.10
4840;DHT22;2434;48.486;7.964;2024-01-15T06:25:12;0.10;62.00
4840;DHT22;2434;48.486;7.964;2024-01-15T06:27:41;0.10;61.70
4840;DHT22;2434;48.486;7.964;2024-01-15T06:30:10;0.10;61.20
4840;DHT22;2434;48.486;7.964;2024-01-15T06:32:39;0.10;61.20
4840;DHT22;2434;48.486;7.964;2024-01-15T06:35:07;0.20;61.00
4840;DHT22;2434;48.486;7.964;2024-01-15T06:37:37;0.20;61.60
4840;DHT22;2434;48.486;7.964;2024-01-15T06:40:06;0.20;60.70
4840;DHT22;2434;48.486;7.964;2024-01-15T06:42:36;0.20;60.30
4840;DHT22;2434;48.486;7.964;2024-01-15T06:45:05;0.30;59.90
4840;DHT22;2434;48.486;7.964;2024-01-15T06:47:33;0.30;59.80
4840;DHT22;2434;48.486;7.964;2024-01-15T06:50:02;0.30;59.60
4840;DHT22;2434;48.486;7.964;2024-01-15T06:52:31;0.30;59.30
4840;DHT22;2434;48.486;7.964;2024-01-15T06:54:59;0.30;59.00
4840;DHT22;2434;48.486;7.964;2024-01-15T06:57:28;0.30;58.90
4840;DHT22;2434;48.486;7.964;2024-01-15T06:59:57;0.40;58.50
4840;DHT22;2434;48.486;7.964;2024-01-15T07:02:25;0.40;58.50
4840;DHT22;2434;48.486;7.964;2024-01-15T07:04:53;0.40;58.40
4840;DHT22;2434;48.486;7.964;2024-01-15T07:07:21;0.40;58.10
4840;DHT22;2434;48.486;7.964;2024-01-15T07:09:49;0.40;58.00
4840;DHT22;2434;48.486;7.964;2024-01-15T07:12:19;0.40;58.10
4840;DHT22;2434;48.486;7.964;2024-01-15T07:14:47;0.40;58.20
4840;DHT22;2434;48.486;7.964;2024-01-15T07:17:16;0.50;58.40
4840;DHT22;2434;48.486;7.964;2024-01-15T07:19:44;0.50;58.30
4840;DHT22;2434;48.486;7.964;2024-01-15T07:22:13;0.50;58.40
4840;DHT22;2434;48.486;7.964;2024-01-15T07:24:42;0.50;58.00
4840;DHT22;2434;48.486;7.964;2024-01-15T07:27:10;0.50;58.60
4840;DHT22;2434;48.486;7.964;2024-01-15T07:29:38;0.50;57.90
4840;DHT22;2434;48.486;7.964;2024-01-15T07:32:06;0.50;58.00
4840;DHT22;2434;48.486;7.964;2024-01-15T07:34:37;0.50;58.00
4840;DHT22;2434;48.486;7.964;2024-01-15T07:37:05;0.50;58.10
4840;DHT22;2434;48.486;7.964;2024-01-15T07:39:33;0.50;58.20
4840;DHT22;2434;48.486;7.964;2024-01-15T07:42:03;0.50;58.30
4840;DHT22;2434;48.486;7.964;2024-01-15T07:44:31;0.50;58.50
4840;DHT22;2434;48.486;7.964;2024-01-15T07:46:59;0.60;58.70
4840;DHT22;2434;48.486;7.964;2024-01-15T07:49:28;0.50;58.90
4840;DHT22;2434;48.486;7.964;2024-01-15T07:51:58;0.50;59.10
4840;DHT22;2434;48.486;7.964;2024-01-15T07:54:26;0.60;59.30
4840;DHT22;2434;48.486;7.964;2024-01-15T07:56:56;0.60;59.50
4840;DHT22;2434;48.486;7.964;2024-01-15T07:59:24;0.50;59.70
4840;DHT22;2434;48.486;7.964;2024-01-15T08:01:52;0.60;60.00
4840;DHT22;2434;48.486;7.964;2024-01-15T08:04:21;0.60;60.40
4840;DHT22;2434;48.486;7.964;2024-01-15T08:06:50;0.60;60.60
4840;DHT22;2434;48.486;7.964;2024-01-15T08:09:20;0.60;60.60
4840;DHT22;2434;48.486;7.964;2024-01-15T08:11:49;0.60;60.70
4840;DHT22;2434;48.486;7.964;2024-01-15T08:14:18;0.60;60.80
4840;DHT22;2434;48.486;7.964;2024-01-15T08:16:46;0.60;60.50
4840;DHT22;2434;48.486;7.964;2024-01-15T08:19:14;0.60;60.60
4840;DHT22;2434;48.486;7.964;2024-01-15T08:21:42;0.60;60.60
4840;DHT22;2434;48.486;7.964;2024-01-15T08:24:11;0.60;60.70
4840;DHT22;2434;48.486;7.964;2024-01-15T08:26:41;0.60;60.80
4840;DHT22;2434;48.486;7.964;2024-01-15T08:29:09;0.70;61.10
4840;DHT22;2434;48.486;7.964;2024-01-15T08:31:37;0.70;61.10
4840;DHT22;2434;48.486;7.964;2024-01-15T08:34:06;0.70;61.20
4840;DHT22;2434;48.486;7.964;2024-01-15T08:36:35;0.70;61.50
4840;DHT22;2434;48.486;7.964;2024-01-15T08:39:03;0.70;61.90
4840;DHT22;2434;48.486;7.964;2024-01-15T08:41:32;0.70;62.40
4840;DHT22;2434;48.486;7.964;2024-01-15T08:44:01;0.70;62.70
4840;DHT22;2434;48.486;7.964;2024-01-15T08:46:30;0.70;63.10
4840;DHT22;2434;48.486;7.964;2024-01-15T08:48:58;0.70;63.40
4840;DHT22;2434;48.486;7.964;2024-01-15T08:51:26;0.70;63.30
4840;DHT22;2434;48.486;7.964;2024-01-15T08:53:56;0.70;63.60
4840;DHT22;2434;48.486;7.964;2024-01-15T08:56:24;0.70;63.80
4840;DHT22;2434;48.486;7.964;2024-01-15T08:58:54;0.70;64.10
4840;DHT22;2434;48.486;7.964;2024-01-15T09:01:29;0.60;64.20
4840;DHT22;2434;48.486;7.964;2024-01-15T09:03:57;0.70;64.40
4840;DHT22;2434;48.486;7.964;2024-01-15T09:06:26;0.70;64.40
4840;DHT22;2434;48.486;7.964;2024-01-15T09:08:54;0.70;64.70
4840;DHT22;2434;48.486;7.964;2024-01-15T09:11:22;0.70;65.00
4840;DHT22;2434;48.486;7.964;2024-01-15T09:13:51;0.60;65.20
4840;DHT22;2434;48.486;7.964;2024-01-15T09:16:19;0.60;65.70
4840;DHT22;2434;48.486;7.964;2024-01-15T09:18:49;0.60;66.20
4840;DHT22;2434;48.486;7.964;2024-01-15T09:21:17;0.60;66.40
4840;DHT22;2434;48.486;7.964;2024-01-15T09:23:45;0.60;66.60
4840;DHT22;2434;48.486;7.964;2024-01-15T09:26:14;0.60;67.00
4840;DHT22;2434;48.486;7.964;2024-01-15T09:28:42;0.60;67.00
4840;DHT22;2434;48.486;7.964;2024-01-15T09:31:10;0.60;67.00
4840;DHT22;2434;48.486;7.964;2024-01-15T09:33:38;0.60;67.40
4840;DHT22;2434;48.486;7.964;2024-01-15T09:36:08;0.50;67.50
4840;DHT22;2434;48.486;7.964;2024-01-15T09:38:37;0.50;67.60
4840;DHT22;2434;48.486;7.964;2024-01-15T09:41:05;0.50;67.60
4840;DHT22;2434;48.486;7.964;2024-01-15T09:43:33;0.60;67.60
4840;DHT22;2434;48.486;7.964;2024-01-15T09:46:01;0.60;67.50
4840;DHT22;2434;48.486;7.964;2024-01-15T09:48:30;0.60;67.70
4840;DHT22;2434;48.486;7.964;2024-01-15T09:51:01;0.60;67.80
4840;DHT22;2434;48.486;7.964;2024-01-15T09:53:31;0.60;68.00
4840;DHT22;2434;48.486;7.964;2024-01-15T09:56:00;0.60;68.00
4840;DHT22;2434;48.486;7.964;2024-01-15T09:58:28;0.60;68.00
4840;DHT22;2434;48.486;7.964;2024-01-15T10:00:57;0.70;68.10
4840;DHT22;2434;48.486;7.964;2024-01-15T10:03:25;0.60;67.80
4840;DHT22;2434;48.486;7.964;2024-01-15T10:05:54;0.60;67.90
4840;DHT22;2434;48.486;7.964;2024-01-15T10:08:23;0.70;67.90
4840;DHT22;2434;48.486;7.964;2024-01-15T10:10:53;0.70;67.90
4840;DHT22;2434;48.486;7.964;2024-01-15T10:13:22;0.70;67.60
4840;DHT22;2434;48.486;7.964;2024-01-15T10:15:50;0.70;67.30
4840;DHT22;2434;48.486;7.964;2024-01-15T10:18:18;0.70;67.10
4840;DHT22;2434;48.486;7.964;2024-01-15T10:20:47;0.80;67.00
4840;DHT22;2434;48.486;7.964;2024-01-15T10:23:15;0.70;67.00
4840;DHT22;2434;48.486;7.964;2024-01-15T10:25:43;0.80;67.00
4840;DHT22;2434;48.486;7.964;2024-01-15T10:28:13;0.80;66.90
4840;DHT22;2434;48.486;7.964;2024-01-15T10:30:41;0.80;67.10
4840;DHT22;2434;48.486;7.964;2024-01-15T10:33:10;0.80;67.20
4840;DHT22;2434;48.486;7.964;2024-01-15T10:35:39;0.80;67.10
4840;DHT22;2434;48.486;7.964;2024-01-15T10:38:08;0.80;67.20
4840;DHT22;2434;48.486;7.964;2024-01-15T10:40:36;0.80;67.10
4840;DHT22;2434;48.486;7.964;2024-01-15T10:43:05;0.80;67.10
4840;DHT22;2434;48.486;7.964;2024-01-15T10:45:34;0.80;67.20
4840;DHT22;2434;48.486;7.964;2024-01-15T10:48:03;0.80;67.30
4840;DHT22;2434;48.486;7.964;2024-01-15T10:50:32;0.90;67.20
4840;DHT22;2434;48.486;7.964;2024-01-15T10:53:01;0.90;67.30
4840;DHT22;2434;48.486;7.964;2024-01-15T10:55:32;0.90;67.40
4840;DHT22;2434;48.486;7.964;2024-01-15T10:58:01;0.90;67.10
4840;DHT22;2434;48.486;7.964;2024-01-15T11:00:30;1.00;67.20
4840;DHT22;2434;48.486;7.964;2024-01-15T11:03:01;0.90;67.10
4840;DHT22;2434;48.486;7.964;2024-01-15T11:05:29;1.00;67.40
4840;DHT22;2434;48.486;7.964;2024-01-15T11:08:01;1.00;67.40
4840;DHT22;2434;48.486;7.964;2024-01-15T11:10:40;1.00;67.30
4840;DHT22;2434;48.486;7.964;2024-01-15T11:13:10;1.00;67.00
4840;DHT22;2434;48.486;7.964;2024-01-15T11:15:58;1.10;67.30
4840;DHT22;2434;48.486;7.964;2024-01-15T11:18:30;1.10;67.20
4840;DHT22;2434;48.486;7.964;2024-01-15T11:21:20;1.10;66.80
4840;DHT22;2434;48.486;7.964;2024-01-15T11:23:52;1.10;66.70
4840;DHT22;2434;48.486;7.964;2024-01-15T11:26:28;1.10;66.60
4840;DHT22;2434;48.486;7.964;2024-01-15T11:28:57;1.20;66.40
4840;DHT22;2434;48.486;7.964;2024-01-15T11:31:28;1.10;66.20
4840;DHT22;2434;48.486;7.964;2024-01-15T11:33:58;1.10;66.30
4840;DHT22;2434;48.486;7.964;2024-01-15T11:37:01;1.20;66.50
4840;DHT22;2434;48.486;7.964;2024-01-15T11:39:39;1.20;66.40
4840;DHT22;2434;48.486;7.964;2024-01-15T11:42:10;1.20;66.40
4840;DHT22;2434;48.486;7.964;2024-01-15T11:44:39;1.20;66.50
4840;DHT22;2434;48.486;7.964;2024-01-15T11:47:08;1.20;66.10
4840;DHT22;2434;48.486;7.964;2024-01-15T11:49:58;1.30;66.50
4840;DHT22;2434;48.486;7.964;2024-01-15T11:52:33;1.30;67.40
4840;DHT22;2434;48.486;7.964;2024-01-15T11:55:10;1.20;68.70
4840;DHT22;2434;48.486;7.964;2024-01-15T11:57:41;1.20;69.60
4840;DHT22;2434;48.486;7.964;2024-01-15T12:00:13;1.20;70.00
4840;DHT22;2434;48.486;7.964;2024-01-15T12:02:42;1.20;70.20
4840;DHT22;2434;48.486;7.964;2024-01-15T12:05:13;1.20;70.40
4840;DHT22;2434;48.486;7.964;2024-01-15T12:07:42;1.20;70.20
4840;DHT22;2434;48.486;7.964;2024-01-15T12:10:11;1.30;70.30
4840;DHT22;2434;48.486;7.964;2024-01-15T12:12:58;1.30;69.90
4840;DHT22;2434;48.486;7.964;2024-01-15T12:15:28;1.30;69.80
4840;DHT22;2434;48.486;7.964;2024-01-15T12:17:58;1.30;69.90
4840;DHT22;2434;48.486;7.964;2024-01-15T12:20:29;1.30;70.40
4840;DHT22;2434;48.486;7.964;2024-01-15T12:22:59;1.30;70.70
4840;DHT22;2434;48.486;7.964;2024-01-15T12:25:31;1.30;70.80
4840;DHT22;2434;48.486;7.964;2024-01-15T12:28:00;1.30;70.70
4840;DHT22;2434;48.486;7.964;2024-01-15T12:30:29;1.30;70.80
4840;DHT22;2434;48.486;7.964;2024-01-15T12:33:01;1.30;70.90
4840;DHT22;2434;48.486;7.964;2024-01-15T12:35:33;1.40;70.90
4840;DHT22;2434;48.486;7.964;2024-01-15T12:38:02;1.40;71.20
4840;DHT22;2434;48.486;7.964;2024-01-15T12:40:32;1.40;72.00
4840;DHT22;2434;48.486;7.964;2024-01-15T12:43:02;1.40;72.50
4840;DHT22;2434;48.486;7.964;2024-01-15T12:45:31;1.40;73.00
4840;DHT22;2434;48.486;7.964;2024-01-15T12:47:59;1.40;74.10
4840;DHT22;2434;48.486;7.964;2024-01-15T12:50:28;1.40;73.50
4840;DHT22;2434;48.486;7.964;2024-01-15T12:52:58;1.40;73.80
4840;DHT22;2434;48.486;7.964;2024-01-15T12:55:27;1.40;74.10
4840;DHT22;2434;48.486;7.964;2024-01-15T12:57:55;1.40;74.70
4840;DHT22;2434;48.486;7.964;2024-01-15T13:00:23;1.40;75.00
4840;DHT22;2434;48.486;7.964;2024-01-15T13:02:53;1.40;75.40
4840;DHT22;2434;48.486;7.964;2024-01-15T13:05:22;1.40;75.90
4840;DHT22;2434;48.486;7.964;2024-01-15T13:07:51;1.40;76.20
4840;DHT22;2434;48.486;7.964;2024-01-15T13:10:21;1.40;76.60
4840;DHT22;2434;48.486;7.964;2024-01-15T13:12:52;1.40;77.10
4840;DHT22;2434;48.486;7.964;2024-01-15T13:15:20;1.40;78.40
4840;DHT22;2434;48.486;7.964;2024-01-15T13:17:48;1.50;77.90
4840;DHT22;2434;48.486;7.964;2024-01-15T13:20:16;1.40;78.20
4840;DHT22;2434;48.486;7.964;2024-01-15T13:22:45;1.40;78.10
4840;DHT22;2434;48.486;7.964;2024-01-15T13:25:13;1.40;78.40
4840;DHT22;2434;48.486;7.964;2024-01-15T13:27:44;1.40;78.60
4840;DHT22;2434;48.486;7.964;2024-01-15T13:30:13;1.40;78.90
4840;DHT22;2434;48.486;7.964;2024-01-15T13:32:41;1.40;79.10
4840;DHT22;2434;48.486;7.964;2024-01-15T13:35:09;1.40;79.50
4840;DHT22;2434;48.486;7.964;2024-01-15T13:37:40;1.40;79.80
4840;DHT22;2434;48.486;7.964;2024-01-15T13:40:10;1.40;80.00
4840;DHT22;2434;48.486;7.964;2024-01-15T13:42:45;1.40;80.10
4840;DHT22;2434;48.486;7.964;2024-01-15T13:45:14;1.40;80.30
4840;DHT22;2434;48.486;7.964;2024-01-15T13:47:43;1.40;80.60
4840;DHT22;2434;48.486;7.964;2024-01-15T13:50:11;1.40;80.90
4840;DHT22;2434;48.486;7.964;2024-01-15T13:52:40;1.40;81.00
4840;DHT22;2434;48.486;7.964;2024-01-15T13:55:08;1.40;81.30
4840;DHT22;2434;48.486;7.964;2024-01-15T13:57:37;1.30;81.70
4840;DHT22;2434;48.486;7.964;2024-01-15T14:00:08;1.40;81.80
4840;DHT22;2434;48.486;7.964;2024-01-15T14:02:39;1.40;81.90
4840;DHT22;2434;48.486;7.964;2024-01-15T14:05:08;1.40;82.20
4840;DHT22;2434;48.486;7.964;2024-01-15T14:07:36;1.40;82.40
4840;DHT22;2434;48.486;7.964;2024-01-15T14:10:05;1.40;82.50
4840;DHT22;2434;48.486;7.964;2024-01-15T14:12:34;1.40;82.80
4840;DHT22;2434;48.486;7.964;2024-01-15T14:15:03;1.40;82.80
4840;DHT22;2434;48.486;7.964;2024-01-15T14:17:33;1.40;83.10
4840;DHT22;2434;48.486;7.964;2024-01-15T14:20:02;1.40;83.20
4840;DHT22;2434;48.486;7.964;2024-01-15T14:22:32;1.40;83.20
4840;DHT22;2434;48.486;7.964;2024-01-15T14:25:00;1.40;83.30
4840;DHT22;2434;48.486;7.964;2024-01-15T14:27:28;1.40;83.30
4840;DHT22;2434;48.486;7.964;2024-01-15T14:29:56;1.40;83.30
4840;DHT22;2434;48.486;7.964;2024-01-15T14:32:24;1.40;83.30
4840;DHT22;2434;48.486;7.964;2024-01-15T14:34:53;1.40;83.30
4840;DHT22;2434;48.486;7.964;2024-01-15T14:37:23;1.40;83.40
4840;DHT22;2434;48.486;7.964;2024-01-15T14:39:51;1.40;83.70
4840;DHT22;2434;48.486;7.964;2024-01-15T14:42:19;1.40;83.80
4840;DHT22;2434;48.486;7.964;2024-01-15T14:44:47;1.40;83.70
4840;DHT22;2434;48.486;7.964;2024-01-15T14:47:15;1.50;83.70
4840;DHT22;2434;48.486;7.964;2024-01-15T14:49:43;1.40;83.50
4840;DHT22;2434;48.486;7.964;2024-01-15T14:52:13;1.50;83.60
4840;DHT22;2434;48.486;7.964;2024-01-15T14:54:41;1.50;83.70
4840;DHT22;2434;48.486;7.964;2024-01-15T14:57:09;1.50;83.70
4840;DHT22;2434;48.486;7.964;2024-01-15T14:59:37;1.40;83.60
4840;DHT22;2434;48.486;7.964;2024-01-15T15:02:05;1.50;83.80
4840;DHT22;2434;48.486;7.964;2024-01-15T15:04:33;1.50;83.80
4840;DHT22;2434;48.486;7.964;2024-01-15T15:07:02;1.50;83.90
4840;DHT22;2434;48.486;7.964;2024-01-15T15:09:31;1.50;83.70
4840;DHT22;2434;48.486;7.964;2024-01-15T15:11:59;1.50;83.70
4840;DHT22;2434;48.486;7.964;2024-01-15T15:14:29;1.50;83.60
4840;DHT22;2434;48.486;7.964;2024-01-15T15:16:58;1.50;83.60
4840;DHT22;2434;48.486;7.964;2024-01-15T15:19:26;1.60;83.60
4840;DHT22;2434;48.486;7.964;2024-01-15T15:21:54;1.60;83.60
4840;DHT22;2434;48.486;7.964;2024-01-15T15:24:23;1.60;83.60
4840;DHT22;2434;48.486;7.964;2024-01-15T15:26:52;1.50;83.60
4840;DHT22;2434;48.486;7.964;2024-01-15T15:29:21;1.50;83.60
4840;DHT22;2434;48.486;7.964;2024-01-15T15:31:51;1.60;83.60
4840;DHT22;2434;48.486;7.964;2024-01-15T15:34:19;1.60;83.60
4840;DHT22;2434;48.486;7.964;2024-01-15T15:36:47;1.60;83.40
4840;DHT22;2434;48.486;7.964;2024-01-15T15:39:16;1.60;83.30
4840;DHT22;2434;48.486;7.964;2024-01-15T15:41:44;1.60;83.20
4840;DHT22;2434;48.486;7.964;2024-01-15T15:44:13;1.60;83.10
4840;DHT22;2434;48.486;7.964;2024-01-15T15:46:43;1.60;83.00
4840;DHT22;2434;48.486;7.964;2024-01-15T15:49:11;1.60;82.70
4840;DHT22;2434;48.486;7.964;2024-01-15T15:51:40;1.60;82.30
4840;DHT22;2434;48.486;7.964;2024-01-15T15:54:08;1.60;82.00
4840;DHT22;2434;48.486;7.964;2024-01-15T15:56:37;1.60;81.80
4840;DHT22;2434;48.486;7.964;2024-01-15T15:59:06;1.60;81.40
4840;DHT22;2434;48.486;7.964;2024-01-15T16:01:37;1.60;81.20
4840;DHT22;2434;48.486;7.964;2024-01-15T16:04:05;1.60;81.00
4840;DHT22;2434;48.486;7.964;2024-01-15T16:06:33;1.60;80.90
4840;DHT22;2434;48.486;7.964;2024-01-15T16:09:02;1.60;80.70
4840;DHT22;2434;48.486;7.964;2024-01-15T16:11:30;1.60;80.40
4840;DHT22;2434;48.486;7.964;2024-01-15T16:13:58;1.60;79.90
4840;DHT22;2434;48.486;7.964;2024-01-15T16:16:30;1.60;79.20
4840;DHT22;2434;48.486;7.964;2024-01-15T16:19:19;1.60;78.40
4840;DHT22;2434;48.486;7.964;2024-01-15T16:22:07;1.50;76.40
4840;DHT22;2434;48.486;7.964;2024-01-15T16:24:57;1.50;74.40